Time;durP1;ratioP1;P1;durP2;ratioP2;P2;SDS_P1;SDS_P2;PMS_P1;PMS_P2;Temp;Humidity;BMP_temperature;BMP_pressure;BME280_temperature;BME280_humidity;BME280_pressure;Samples;Min_cycle;Max_cycle;Signal;HPM_P1;HPM_P2
2021/01/26 00:00:21;;;;;;;2.40;2.20;;;;;;;20.08;38.56;100440.13;5053478;28;20184;-53
2021/01/26 00:02:48;;;;;;;1.67;1.57;;;;;;;20.08;38.49;100434.69;5056396;28;20261;-40
2021/01/26 00:05:15;;;;;;;1.87;1.77;;;;;;;20.07;38.66;100427.56;5073111;28;20188;-47
2021/01/26 00:07:41;;;;;;;2.27;2.07;;;;;;;20.07;38.33;100425.69;5054707;28;20219;-44
2021/01/26 00:10:08;;;;;;;2.17;1.97;;;;;;;20.08;38.57;100437.41;5053323;28;20744;-40
2021/01/26 00:12:34;;;;;;;2.20;2.00;;;;;;;20.09;38.57;100447.25;5060482;28;20211;-41
2021/01/26 00:15:00;;;;;;;2.27;2.00;;;;;;;20.10;38.85;100448.94;5073346;28;20249;-52
2021/01/26 00:17:26;;;;;;;2.30;2.10;;;;;;;20.10;38.75;100444.34;5072955;28;20272;-49
2021/01/26 00:19:52;;;;;;;2.03;1.83;;;;;;;20.11;38.55;100456.06;5072306;28;20211;-43
2021/01/26 00:22:18;;;;;;;2.10;1.90;;;;;;;20.11;38.79;100459.66;5073044;28;20211;-43
2021/01/26 00:24:44;;;;;;;2.03;1.83;;;;;;;20.11;38.41;100456.06;5071980;28;20176;-43
2021/01/26 00:27:10;;;;;;;2.10;1.87;;;;;;;20.11;38.67;100453.34;5071932;28;20207;-45
2021/01/26 00:29:37;;;;;;;2.20;2.00;;;;;;;20.11;38.59;100453.34;5073154;28;20187;-45
2021/01/26 00:32:03;;;;;;;2.20;2.00;;;;;;;20.11;38.31;100456.94;5072906;28;20249;-51
2021/01/26 00:34:29;;;;;;;1.73;1.63;;;;;;;20.11;38.48;100453.34;5072546;28;20184;-48
2021/01/26 00:36:55;;;;;;;2.10;1.87;;;;;;;20.10;38.45;100451.66;5071760;28;20587;-49
2021/01/26 00:39:21;;;;;;;1.70;1.60;;;;;;;20.09;38.36;100448.09;5072832;28;20183;-48
2021/01/26 00:41:47;;;;;;;1.87;1.60;;;;;;;20.08;38.13;100451.00;5072703;28;20225;-51
2021/01/26 00:44:13;;;;;;;2.10;1.90;;;;;;;20.07;38.14;100457.44;5072728;28;20581;-55
2021/01/26 00:46:39;;;;;;;1.70;1.60;;;;;;;20.06;38.22;100459.31;5072583;28;20211;-53
2021/01/26 00:49:05;;;;;;;2.13;1.93;;;;;;;20.06;38.03;100470.19;5072602;28;20261;-55
2021/01/26 00:51:31;;;;;;;2.10;1.90;;;;;;;20.04;38.19;100455.94;5071544;28;20262;-44
2021/01/26 00:53:57;;;;;;;1.70;1.60;;;;;;;20.04;38.28;100457.81;5072563;28;20237;-50
2021/01/26 00:56:23;;;;;;;1.90;1.80;;;;;;;20.03;38.24;100458.84;5072399;28;20207;-43
2021/01/26 00:58:49;;;;;;;2.17;1.93;;;;;;;20.02;38.44;100455.28;5072172;28;20530;-40
2021/01/26 01:01:16;;;;;;;1.80;1.70;;;;;;;20.02;38.39;100446.31;5071861;28;20293;-54
2021/01/26 01:03:42;;;;;;;1.90;1.80;;;;;;;20.02;38.38;100454.44;5071387;28;20609;-49
2021/01/26 01:06:08;;;;;;;1.80;1.70;;;;;;;20.01;38.43;100450.88;5072212;28;20199;-50
2021/01/26 01:08:34;;;;;;;1.93;1.73;;;;;;;20.03;38.23;100458.84;5071110;28;20187;-53
2021/01/26 01:11:00;;;;;;;1.80;1.70;;;;;;;20.02;38.58;100454.44;5071925;28;20573;-53
2021/01/26 01:13:26;;;;;;;1.70;1.60;;;;;;;20.03;38.54;100477.88;5072364;28;20286;-40
2021/01/26 01:15:52;;;;;;;1.63;1.53;;;;;;;20.04;38.42;100479.56;5071613;28;20656;-40
2021/01/26 01:18:18;;;;;;;1.40;1.30;;;;;;;20.04;38.69;100474.13;5071881;28;20245;-44
2021/01/26 01:20:44;;;;;;;1.70;1.60;;;;;;;20.04;38.47;100468.69;5054526;28;20645;-43
2021/01/26 01:23:10;;;;;;;1.93;1.80;;;;;;;20.05;38.81;100473.94;5072015;28;20249;-44
2021/01/26 01:25:37;;;;;;;1.70;1.60;;;;;;;20.05;38.76;100473.94;5071955;28;20576;-44
2021/01/26 01:28:03;;;;;;;1.80;1.70;;;;;;;20.06;38.65;100463.91;5072046;28;20191;-46
2021/01/26 01:30:30;;;;;;;1.67;1.57;;;;;;;20.07;38.78;100473.75;5072197;28;20566;-44
2021/01/26 01:32:57;;;;;;;1.80;1.63;;;;;;;20.08;38.61;100472.72;5070967;28;20187;-45
2021/01/26 01:35:23;;;;;;;1.70;1.60;;;;;;;20.08;38.41;100475.44;5070956;28;20183;-40
2021/01/26 01:37:49;;;;;;;1.70;1.60;;;;;;;20.08;38.51;100473.56;5071822;28;20188;-40
2021/01/26 01:40:25;;;;;;;1.60;1.50;;;;;;;20.10;38.52;100481.53;5071599;28;20229;-45
2021/01/26 01:42:52;;;;;;;1.90;1.70;;;;;;;20.09;38.37;100479.84;5070808;28;20276;-45
2021/01/26 01:45:19;;;;;;;1.70;1.60;;;;;;;20.08;38.47;100487.16;5070884;28;20266;-43
2021/01/26 01:47:54;;;;;;;1.70;1.60;;;;;;;20.10;38.30;100492.41;5070947;28;20176;-45
2021/01/26 01:50:28;;;;;;;2.03;1.57;;;;;;;20.08;38.43;100487.16;5071767;28;20187;-46
2021/01/26 01:53:03;;;;;;;1.70;1.60;;;;;;;20.07;37.84;100492.78;5071789;28;20790;-44
2021/01/26 01:55:31;;;;;;;1.33;1.23;;;;;;;20.07;38.15;100492.78;5070780;28;20186;-43
2021/01/26 01:58:03;;;;;;;1.80;1.47;;;;;;;20.06;38.02;100491.94;5070800;28;20180;-48
2021/01/26 02:00:29;;;;;;;1.80;1.70;;;;;;;20.05;37.98;100503.81;5054188;28;20242;-55
2021/01/26 02:02:59;;;;;;;1.70;1.60;;;;;;;20.05;38.17;100502.97;5070685;28;20196;-49
2021/01/26 02:05:25;;;;;;;1.80;1.70;;;;;;;20.03;38.09;100491.47;5070416;28;20662;-50
2021/01/26 02:07:53;;;;;;;1.63;1.53;;;;;;;20.02;38.33;100496.06;5053863;28;20175;-48
2021/01/26 02:10:20;;;;;;;1.70;1.60;;;;;;;20.01;38.33;100502.50;5071576;28;20262;-42
2021/01/26 02:12:46;;;;;;;1.33;1.23;;;;;;;20.01;38.55;100507.94;5071571;28;20172;-42
2021/01/26 02:15:12;;;;;;;1.60;1.50;;;;;;;20.02;38.37;100503.34;5071513;28;20209;-44
2021/01/26 02:18:03;;;;;;;1.53;1.43;;;;;;;20.03;38.38;100505.03;5070246;28;20218;-46
2021/01/26 02:20:38;;;;;;;1.70;1.60;;;;;;;20.01;38.47;100505.22;5070363;28;20209;-40
2021/01/26 02:23:23;;;;;;;1.40;1.30;;;;;;;20.01;38.42;100505.22;5071288;28;20210;-42
2021/01/26 02:26:08;;;;;;;1.50;1.40;;;;;;;20.02;38.55;100500.63;5071105;28;20231;-40
2021/01/26 02:28:46;;;;;;;1.50;1.40;;;;;;;20.03;38.53;100507.75;5071077;28;20175;-40
2021/01/26 02:31:51;;;;;;;1.30;1.20;;;;;;;20.04;38.55;100509.44;5071054;28;20180;-44
2021/01/26 02:34:58;;;;;;;1.53;1.43;;;;;;;20.05;38.76;100522.00;5071265;28;20262;-49
2021/01/26 02:37:46;;;;;;;1.40;1.30;;;;;;;20.06;38.58;100518.25;5065225;28;20269;-50
2021/01/26 02:40:31;;;;;;;1.60;1.50;;;;;;;20.06;38.69;100518.25;5051228;28;20180;-48
2021/01/26 02:43:16;;;;;;;1.60;1.50;;;;;;;20.06;38.46;100521.81;5050651;28;20184;-49
2021/01/26 02:46:02;;;;;;;1.50;1.40;;;;;;;20.06;38.40;100521.81;5054745;28;20215;-44
2021/01/26 02:49:06;;;;;;;1.30;1.20;;;;;;;20.06;38.55;100523.69;5055081;28;20210;-42
2021/01/26 02:51:45;;;;;;;1.40;1.30;;;;;;;20.06;38.57;100534.56;5071609;28;20214;-45
2021/01/26 02:54:35;;;;;;;1.10;1.10;;;;;;;20.05;38.45;100538.31;5068640;28;20370;-44
2021/01/26 02:57:22;;;;;;;1.40;1.30;;;;;;;20.05;38.35;100539.16;5073873;28;20211;-43
2021/01/26 02:59:57;;;;;;;1.73;1.30;;;;;;;20.03;38.44;100524.91;5074786;28;20250;-48
2021/01/26 03:02:32;;;;;;;1.40;1.30;;;;;;;20.03;38.43;100537.66;5073719;28;20203;-49
2021/01/26 03:05:32;;;;;;;1.23;1.13;;;;;;;20.02;38.20;100538.69;5073636;28;20179;-41
2021/01/26 03:08:01;;;;;;;1.40;1.30;;;;;;;20.01;38.43;100536.97;5083973;28;20199;-42
2021/01/26 03:10:37;;;;;;;1.30;1.20;;;;;;;20.01;38.22;100534.28;5073515;28;20202;-42
2021/01/26 03:13:07;;;;;;;1.50;1.30;;;;;;;20.00;38.38;100544.28;5073618;28;20262;-43
2021/01/26 03:15:39;;;;;;;1.50;1.40;;;;;;;19.98;38.48;100531.91;5073520;28;20180;-40
2021/01/26 03:18:11;;;;;;;1.50;1.40;;;;;;;20.00;38.55;100536.13;5073212;28;20534;-40
2021/01/26 03:20:40;;;;;;;1.40;1.30;;;;;;;19.99;38.30;100545.31;5064728;28;20184;-40
2021/01/26 03:23:08;;;;;;;1.30;1.20;;;;;;;20.01;38.58;100547.84;5073086;28;20188;-40
2021/01/26 03:25:36;;;;;;;1.27;1.17;;;;;;;20.00;38.62;100555.16;5072880;28;20254;-53
2021/01/26 03:28:02;;;;;;;1.30;1.17;;;;;;;20.00;38.41;100554.31;5067935;28;20542;-50
2021/01/26 03:30:32;;;;;;;1.20;1.10;;;;;;;20.02;38.71;100563.13;5053108;28;20246;-46
2021/01/26 03:33:04;;;;;;;1.83;1.30;;;;;;;20.02;38.46;100566.69;5053254;28;20265;-46
2021/01/26 03:35:30;;;;;;;1.13;1.13;;;;;;;20.02;38.71;100566.69;5053231;28;20188;-44
2021/01/26 03:37:58;;;;;;;1.40;1.30;;;;;;;20.03;38.55;100568.38;5053245;28;20270;-46
2021/01/26 03:40:24;;;;;;;1.20;1.10;;;;;;;20.03;38.53;100575.69;5053131;28;20211;-44
2021/01/26 03:42:50;;;;;;;1.30;1.20;;;;;;;20.04;38.62;100574.66;5053062;28;20292;-40
2021/01/26 03:45:16;;;;;;;1.30;1.20;;;;;;;20.06;38.59;100578.03;5053612;28;20176;-40
2021/01/26 03:48:10;;;;;;;1.03;1.03;;;;;;;20.07;38.61;100574.28;5053426;28;20764;-40
2021/01/26 03:51:04;;;;;;;1.40;1.30;;;;;;;20.07;38.44;100575.13;5052613;28;20216;-40
2021/01/26 03:53:58;;;;;;;1.40;1.30;;;;;;;20.07;38.42;100577.84;5052537;28;20693;-40
2021/01/26 03:56:36;;;;;;;1.40;1.30;;;;;;;20.06;38.61;100589.75;5053440;28;20233;-40
2021/01/26 03:59:02;;;;;;;1.30;1.17;;;;;;;20.05;38.24;100587.22;5035976;28;20196;-40
2021/01/26 04:01:42;;;;;;;1.20;1.10;;;;;;;20.06;38.29;100594.34;5053289;28;20222;-50
2021/01/26 04:04:36;;;;;;;1.13;1.10;;;;;;;20.06;38.25;100588.91;5052407;28;20214;-43
2021/01/26 04:07:04;;;;;;;1.00;1.00;;;;;;;20.03;38.21;100592.00;5052349;28;20222;-46
2021/01/26 04:09:35;;;;;;;1.20;1.10;;;;;;;20.02;38.33;100587.59;5052112;28;20641;-44
2021/01/26 04:12:08;;;;;;;1.20;1.10;;;;;;;20.01;38.31;100597.59;5060980;28;20572;-40
2021/01/26 04:14:48;;;;;;;1.20;1.10;;;;;;;20.01;38.06;100585.88;5072176;28;20190;-40
2021/01/26 04:17:18;;;;;;;1.23;1.17;;;;;;;20.00;38.28;100601.34;5056545;28;20226;-45
2021/01/26 04:19:45;;;;;;;1.23;1.13;;;;;;;19.99;38.17;100593.38;5053067;28;20509;-45
2021/01/26 04:22:12;;;;;;;1.77;1.30;;;;;;;19.99;38.51;100598.81;5035229;28;20219;-46
2021/01/26 04:24:38;;;;;;;0.90;0.90;;;;;;;19.98;38.41;100611.56;5052184;28;20188;-44
2021/01/26 04:27:15;;;;;;;1.00;1.00;;;;;;;19.99;38.45;100615.97;5052899;28;20230;-46
2021/01/26 04:29:41;;;;;;;1.30;1.20;;;;;;;19.98;38.35;100625.13;5052028;28;20176;-45
2021/01/26 04:32:07;;;;;;;1.30;1.07;;;;;;;20.00;38.44;100633.09;5052835;28;20188;-46
2021/01/26 04:34:33;;;;;;;1.07;1.07;;;;;;;19.99;38.28;100634.97;5051943;28;20180;-46
2021/01/26 04:36:59;;;;;;;1.33;1.00;;;;;;;20.00;38.72;100633.09;5067118;28;20558;-44
2021/01/26 04:39:25;;;;;;;0.90;0.90;;;;;;;20.00;38.36;100636.66;5073144;28;20567;-44
2021/01/26 04:41:59;;;;;;;1.33;1.10;;;;;;;20.02;38.46;100641.91;5072746;28;20294;-44
2021/01/26 04:44:50;;;;;;;1.30;1.20;;;;;;;20.04;38.47;100639.88;5072040;28;20616;-48
2021/01/26 04:47:35;;;;;;;1.00;1.00;;;;;;;20.03;38.51;100639.03;5071889;28;20247;-45
2021/01/26 04:50:29;;;;;;;0.90;0.90;;;;;;;20.05;38.77;100653.28;5072112;28;20534;-46
2021/01/26 04:53:20;;;;;;;1.10;1.00;;;;;;;20.06;38.58;100671.25;5072656;28;20183;-48
2021/01/26 04:55:53;;;;;;;1.07;1.00;;;;;;;20.04;38.76;100677.91;5072401;28;20208;-43
2021/01/26 04:58:28;;;;;;;1.17;1.00;;;;;;;20.03;38.74;100682.50;5071391;28;20188;-45
2021/01/26 05:01:13;;;;;;;1.10;1.00;;;;;;;20.05;38.48;100680.44;5072479;28;20556;-44
2021/01/26 05:03:54;;;;;;;1.10;1.00;;;;;;;20.04;38.41;100683.34;5072378;28;20192;-44
2021/01/26 05:06:20;;;;;;;0.90;0.90;;;;;;;20.04;38.54;100683.34;5070618;28;20210;-48
2021/01/26 05:08:49;;;;;;;0.90;0.90;;;;;;;20.04;38.43;100689.63;5054834;28;20222;-48
2021/01/26 05:11:17;;;;;;;0.80;0.80;;;;;;;20.03;38.25;100679.78;5071500;28;20187;-52
2021/01/26 05:13:48;;;;;;;0.90;0.90;;;;;;;20.04;38.19;100680.63;5054969;28;20688;-53
2021/01/26 05:16:16;;;;;;;1.20;1.10;;;;;;;20.04;38.24;100688.78;5072066;28;20223;-44
2021/01/26 05:18:44;;;;;;;1.20;1.10;;;;;;;20.02;38.09;100688.94;5054859;28;20187;-43
2021/01/26 05:21:33;;;;;;;0.90;0.90;;;;;;;20.02;38.35;100678.09;5071201;28;20211;-44
2021/01/26 05:24:11;;;;;;;1.10;1.00;;;;;;;20.02;38.16;100677.25;5070676;28;20200;-44
2021/01/26 05:26:38;;;;;;;0.90;0.80;;;;;;;20.00;38.19;100687.44;5055982;28;20306;-52
2021/01/26 05:29:04;;;;;;;1.07;0.97;;;;;;;19.99;38.48;100691.19;5071073;28;20186;-44
2021/01/26 05:31:30;;;;;;;0.90;0.90;;;;;;;19.99;38.58;100691.19;5070750;28;20207;-44
2021/01/26 05:34:11;;;;;;;1.20;1.10;;;;;;;20.01;38.47;100691.84;5070958;28;20187;-50
2021/01/26 05:36:37;;;;;;;0.90;0.90;;;;;;;19.99;38.57;100702.91;5055852;28;20223;-50
2021/01/26 05:39:04;;;;;;;0.90;0.90;;;;;;;19.99;38.51;100702.06;5071817;28;20192;-44
2021/01/26 05:41:31;;;;;;;0.70;0.70;;;;;;;19.99;38.29;100707.50;5071841;28;20208;-48
2021/01/26 05:43:58;;;;;;;0.93;0.90;;;;;;;20.00;38.28;100714.59;5071793;28;20184;-49
2021/01/26 05:46:39;;;;;;;1.10;1.00;;;;;;;20.02;38.49;100723.44;5071744;28;20200;-48
2021/01/26 05:49:05;;;;;;;0.93;0.93;;;;;;;20.00;38.43;100720.88;5071815;28;20206;-50
2021/01/26 05:51:31;;;;;;;0.90;0.90;;;;;;;20.01;38.46;100716.31;5071662;28;20179;-47
2021/01/26 05:54:19;;;;;;;1.00;0.90;;;;;;;20.02;38.53;100731.56;5054218;28;20257;-43
2021/01/26 05:56:52;;;;;;;0.87;0.87;;;;;;;20.04;38.57;100729.53;5070632;28;20219;-40
2021/01/26 05:59:35;;;;;;;0.90;0.90;;;;;;;20.05;38.63;100734.78;5054026;28;20215;-40
2021/01/26 06:02:15;;;;;;;1.10;1.00;;;;;;;20.05;38.63;100734.78;5071456;28;20242;-40
2021/01/26 06:04:41;;;;;;;0.90;0.80;;;;;;;20.03;38.71;100725.97;5071308;28;20192;-39
2021/01/26 06:07:22;;;;;;;1.23;1.03;;;;;;;20.05;38.40;100723.91;5063045;28;20656;-44
2021/01/26 06:09:49;;;;;;;0.80;0.80;;;;;;;20.04;38.42;100724.94;5062086;28;20267;-43
2021/01/26 06:12:19;;;;;;;1.27;1.00;;;;;;;20.05;38.41;100728.50;5056553;28;20535;-44
2021/01/26 06:15:07;;;;;;;0.80;0.80;;;;;;;20.04;38.45;100737.69;5051228;28;20192;-40
2021/01/26 06:17:34;;;;;;;0.80;0.80;;;;;;;20.04;38.22;100734.97;5050983;28;20235;-47
2021/01/26 06:20:20;;;;;;;0.80;0.80;;;;;;;20.04;38.35;100743.97;5055126;28;20263;-48
2021/01/26 06:22:46;;;;;;;0.80;0.80;;;;;;;20.02;38.14;100750.59;5055639;28;20248;-39
2021/01/26 06:25:30;;;;;;;1.03;0.70;;;;;;;20.04;38.44;100753.97;5055207;28;20215;-39
2021/01/26 06:28:03;;;;;;;0.93;0.80;;;;;;;20.00;38.28;100753.50;5055244;28;20218;-44
2021/01/26 06:30:41;;;;;;;0.80;0.80;;;;;;;20.01;38.36;100766.06;5055537;28;20196;-51
2021/01/26 06:33:32;;;;;;;1.10;0.90;;;;;;;20.00;38.36;100764.38;5054590;28;20184;-42
2021/01/26 06:36:28;;;;;;;0.70;0.70;;;;;;;20.00;38.39;100775.22;5055189;28;20730;-44
2021/01/26 06:39:10;;;;;;;0.80;0.80;;;;;;;19.99;38.37;100781.69;5061720;28;20191;-39
2021/01/26 06:41:39;;;;;;;0.73;0.70;;;;;;;19.98;38.50;100777.28;5058177;28;20290;-42
2021/01/26 06:44:36;;;;;;;0.70;0.70;;;;;;;20.01;38.38;100792.38;5075048;28;20512;-44
2021/01/26 06:47:21;;;;;;;1.17;0.87;;;;;;;20.00;38.53;100807.00;5074826;28;20218;-42
2021/01/26 06:50:32;;;;;;;0.70;0.70;;;;;;;20.01;38.38;100803.25;5065917;28;20195;-42
2021/01/26 06:53:01;;;;;;;0.93;0.63;;;;;;;20.01;38.50;100808.69;5068793;28;20200;-43
2021/01/26 06:55:49;;;;;;;0.77;0.77;;;;;;;20.00;38.48;100799.69;5074703;28;20694;-44
2021/01/26 06:58:24;;;;;;;0.80;0.80;;;;;;;20.02;38.49;100799.50;5060539;28;20269;-51
2021/01/26 07:01:28;;;;;;;1.27;0.80;;;;;;;20.04;38.75;100786.59;5069764;28;20254;-51
2021/01/26 07:04:23;;;;;;;0.90;0.90;;;;;;;20.05;38.70;100793.72;5052002;28;20291;-50
2021/01/26 07:06:52;;;;;;;0.80;0.80;;;;;;;20.04;38.93;100792.03;5050532;28;20212;-47
2021/01/26 07:09:27;;;;;;;0.90;0.83;;;;;;;20.07;38.73;100797.09;5050369;28;20219;-51
2021/01/26 07:12:03;;;;;;;0.77;0.77;;;;;;;20.07;38.66;100813.41;5050277;28;20183;-48
2021/01/26 07:14:55;;;;;;;0.77;0.77;;;;;;;20.07;38.87;100816.13;5057902;28;20248;-48
2021/01/26 07:17:36;;;;;;;0.80;0.80;;;;;;;20.07;38.76;100806.09;5053503;28;20243;-48
2021/01/26 07:20:29;;;;;;;1.20;0.93;;;;;;;20.07;38.53;100824.28;5063960;28;20210;-51
2021/01/26 07:22:58;;;;;;;0.87;0.87;;;;;;;20.06;38.52;100809.00;5071157;28;20199;-48
2021/01/26 07:25:26;;;;;;;0.73;0.70;;;;;;;20.06;38.49;100819.88;5074278;28;20180;-52
2021/01/26 07:28:18;;;;;;;0.97;0.90;;;;;;;20.07;38.69;100827.00;5074089;28;20211;-42
2021/01/26 07:30:53;;;;;;;0.73;0.73;;;;;;;20.07;38.61;100829.72;5054682;28;20275;-51
2021/01/26 07:33:27;;;;;;;1.00;0.90;;;;;;;20.06;38.63;100834.28;5073395;28;20536;-47
2021/01/26 07:36:26;;;;;;;0.80;0.80;;;;;;;20.07;38.63;100836.00;5061191;28;20273;-47
2021/01/26 07:38:59;;;;;;;0.90;0.80;;;;;;;20.06;38.78;100850.59;5056160;28;20180;-48
2021/01/26 07:41:34;;;;;;;0.70;0.70;;;;;;;20.07;38.64;100854.16;5052946;28;20230;-46
2021/01/26 07:44:16;;;;;;;0.90;0.90;;;;;;;20.08;38.78;100858.56;5058507;28;20531;-48
2021/01/26 07:47:02;;;;;;;0.80;0.80;;;;;;;20.08;38.71;100858.56;5046370;28;20210;-49
2021/01/26 07:49:51;;;;;;;0.90;0.90;;;;;;;20.09;38.58;100871.13;5070065;28;20241;-49
2021/01/26 07:52:17;;;;;;;1.17;0.77;;;;;;;20.08;38.69;100874.88;5072986;28;20587;-47
2021/01/26 07:55:09;;;;;;;1.00;0.90;;;;;;;20.10;38.78;100881.84;5072998;28;20180;-43
2021/01/26 07:58:02;;;;;;;0.70;0.70;;;;;;;20.10;38.58;100890.00;5073707;28;20234;-46
2021/01/26 08:00:30;;;;;;;0.90;0.90;;;;;;;20.10;38.63;100883.69;5072849;28;20214;-43
2021/01/26 08:02:57;;;;;;;0.80;0.80;;;;;;;20.07;38.48;100879.47;5064953;28;20227;-42
2021/01/26 08:05:51;;;;;;;0.80;0.80;;;;;;;20.09;38.32;100884.72;5071547;28;20316;-43
2021/01/26 08:08:33;;;;;;;1.00;0.90;;;;;;;20.09;38.48;100887.44;5073466;28;20896;-44
2021/01/26 08:11:20;;;;;;;1.13;0.80;;;;;;;20.09;38.24;100890.16;5073346;28;20238;-47
2021/01/26 08:13:59;;;;;;;0.77;0.77;;;;;;;20.07;38.40;100895.78;5073627;28;20587;-49
2021/01/26 08:16:39;;;;;;;0.90;0.80;;;;;;;20.06;38.42;100896.78;5072969;28;20219;-50
2021/01/26 08:19:19;;;;;;;0.80;0.80;;;;;;;20.05;38.37;100907.84;5039542;28;20233;-49
2021/01/26 08:21:46;;;;;;;0.60;0.60;;;;;;;20.03;38.30;100893.59;5057625;28;20200;-43
2021/01/26 08:24:27;;;;;;;0.70;0.70;;;;;;;20.04;38.40;100904.28;5055604;28;20198;-45
2021/01/26 08:26:55;;;;;;;1.00;1.00;;;;;;;20.03;38.41;100910.72;5070824;28;20712;-48
2021/01/26 08:29:52;;;;;;;0.80;0.80;;;;;;;20.05;38.33;100918.72;5072305;28;20325;-42
2021/01/26 08:32:27;;;;;;;0.80;0.80;;;;;;;20.05;38.52;100913.28;5073305;28;20179;-43
2021/01/26 08:35:22;;;;;;;1.03;0.73;;;;;;;20.04;38.50;100927.88;5072651;28;20183;-44
2021/01/26 08:37:50;;;;;;;1.67;0.80;;;;;;;20.03;38.62;100927.03;5053173;28;20532;-43
2021/01/26 08:40:16;;;;;;;1.00;0.90;;;;;;;20.03;38.70;100920.75;5064232;28;20189;-44
2021/01/26 08:42:42;;;;;;;0.80;0.80;;;;;;;20.03;38.56;100929.75;5071181;28;20210;-44
2021/01/26 08:45:39;;;;;;;0.70;0.70;;;;;;;20.05;38.70;100941.28;5072850;28;20188;-43
2021/01/26 08:48:22;;;;;;;1.07;0.80;;;;;;;20.07;38.70;100935.69;5072178;28;20206;-44
2021/01/26 08:50:51;;;;;;;0.70;0.70;;;;;;;20.05;38.54;100941.28;5071926;28;20183;-44
2021/01/26 08:53:29;;;;;;;0.70;0.70;;;;;;;20.07;38.38;100950.13;5072329;28;20188;-43
2021/01/26 08:55:56;;;;;;;0.93;0.80;;;;;;;20.06;38.55;100956.56;5061634;28;20306;-47
2021/01/26 08:58:37;;;;;;;0.83;0.70;;;;;;;20.09;38.57;100955.38;5071921;28;20187;-43
2021/01/26 09:01:03;;;;;;;0.80;0.70;;;;;;;20.06;38.45;100961.16;5072782;28;20200;-43
2021/01/26 09:03:31;;;;;;;1.03;0.70;;;;;;;20.06;38.64;100980.19;5055051;28;20210;-43
2021/01/26 09:06:08;;;;;;;0.70;0.70;;;;;;;20.07;38.41;100971.00;5071052;28;20207;-45
2021/01/26 09:08:40;;;;;;;0.80;0.80;;;;;;;20.08;38.51;100989.00;5055187;28;20226;-43
2021/01/26 09:11:24;;;;;;;0.80;0.80;;;;;;;20.08;38.45;100983.59;5051374;28;20177;-44
2021/01/26 09:13:50;;;;;;;1.00;0.90;;;;;;;20.06;38.24;100980.19;5061539;28;20278;-43
2021/01/26 09:16:23;;;;;;;1.00;0.90;;;;;;;20.06;38.31;100989.19;5070729;28;20694;-47
2021/01/26 09:19:04;;;;;;;0.77;0.60;;;;;;;20.07;38.40;100998.19;5070868;28;20726;-47
2021/01/26 09:21:31;;;;;;;0.70;0.70;;;;;;;20.06;38.17;101005.50;5051903;28;20242;-51
2021/01/26 09:23:57;;;;;;;0.87;0.80;;;;;;;20.04;38.56;100999.38;5065819;28;20585;-49
2021/01/26 09:26:25;;;;;;;0.80;0.80;;;;;;;20.06;38.80;101001.94;5067265;28;20222;-50
2021/01/26 09:28:51;;;;;;;1.30;0.87;;;;;;;20.06;39.08;101001.94;5068472;28;20188;-51
2021/01/26 09:31:19;;;;;;;1.40;0.80;;;;;;;19.95;39.85;101005.00;5066941;28;20406;-40
2021/01/26 09:33:45;;;;;;;1.13;0.80;;;;;;;20.06;39.86;101007.38;5071213;28;20172;-39
2021/01/26 09:36:13;;;;;;;1.07;0.80;;;;;;;20.16;39.83;101010.78;5063453;28;20213;-46
2021/01/26 09:38:45;;;;;;;2.23;0.83;;;;;;;20.25;39.68;101023.31;5060149;28;20204;-47
2021/01/26 09:41:23;;;;;;;0.90;0.70;;;;;;;20.35;39.63;101024.00;5051829;28;20250;-39
2021/01/26 09:43:50;;;;;;;0.70;0.70;;;;;;;20.42;39.56;101024.19;5064832;28;20185;-39
2021/01/26 09:46:26;;;;;;;1.60;0.90;;;;;;;20.50;39.56;101032.31;5063582;28;20261;-40
2021/01/26 09:48:54;;;;;;;4.00;1.00;;;;;;;20.59;39.83;101041.34;5071174;28;20266;-47
2021/01/26 09:51:23;;;;;;;4.10;1.47;;;;;;;20.66;39.80;101040.44;5071239;28;20189;-45
2021/01/26 09:54:06;;;;;;;11.83;1.40;;;;;;;20.74;39.91;101061.34;5071606;28;20266;-45
2021/01/26 09:56:33;;;;;;;7.97;1.60;;;;;;;20.83;39.95;101057.59;5052975;28;20203;-43
2021/01/26 09:58:59;;;;;;;3.50;1.10;;;;;;;20.90;40.33;101066.75;5060893;28;20256;-45
2021/01/26 10:01:25;;;;;;;21.43;1.70;;;;;;;20.99;40.34;101062.97;5054038;28;20269;-48
2021/01/26 10:04:03;;;;;;;4.53;1.00;;;;;;;21.09;40.12;101063.63;5070840;28;20683;-51
2021/01/26 10:06:29;;;;;;;5.20;1.30;;;;;;;21.15;40.36;101062.91;5071570;28;20684;-46
2021/01/26 10:08:55;;;;;;;2.73;0.97;;;;;;;21.24;40.33;101068.34;5070699;28;20184;-47
2021/01/26 10:11:28;;;;;;;5.30;1.00;;;;;;;21.34;40.14;101071.72;5071756;28;20183;-39
2021/01/26 10:14:16;;;;;;;2.50;1.00;;;;;;;21.42;40.08;101083.41;5071929;28;20209;-39
2021/01/26 10:16:46;;;;;;;3.57;1.10;;;;;;;21.50;39.84;101084.38;5071548;28;20558;-39
2021/01/26 10:19:31;;;;;;;0.97;0.73;;;;;;;21.59;39.95;101080.59;5064129;28;20188;-39
2021/01/26 10:22:09;;;;;;;2.97;1.10;;;;;;;21.66;40.06;101087.88;5070126;28;20207;-37
2021/01/26 10:24:35;;;;;;;10.13;1.70;;;;;;;21.72;40.26;101084.41;5053151;28;20353;-41
2021/01/26 10:27:22;;;;;;;4.07;1.63;;;;;;;21.82;40.21;101100.56;5050145;28;20196;-40
2021/01/26 10:29:48;;;;;;;6.43;1.47;;;;;;;21.89;40.11;101095.22;5050367;28;20184;-44
2021/01/26 10:32:44;;;;;;;5.73;1.60;;;;;;;22.00;40.04;101100.25;5051366;28;20191;-45
2021/01/26 10:35:34;;;;;;;3.43;1.63;;;;;;;22.11;40.09;101094.41;5051558;28;20267;-44
2021/01/26 10:38:25;;;;;;;6.60;1.43;;;;;;;22.20;40.41;101104.22;5050653;28;20687;-47
2021/01/26 10:41:03;;;;;;;8.73;1.90;;;;;;;22.27;40.15;101105.19;5050557;28;20185;-46
2021/01/26 10:43:29;;;;;;;5.73;1.37;;;;;;;22.34;40.19;101100.69;5051554;28;20813;-41
2021/01/26 10:45:55;;;;;;;5.83;1.63;;;;;;;22.42;40.23;101102.50;5033498;28;20212;-40
2021/01/26 10:48:34;;;;;;;9.83;1.70;;;;;;;22.51;40.16;101106.03;5050300;28;20196;-39
2021/01/26 10:51:12;;;;;;;4.57;1.40;;;;;;;22.58;40.18;101104.25;5033715;28;20188;-39
2021/01/26 10:53:43;;;;;;;6.13;1.17;;;;;;;22.62;40.17;101100.94;5050245;28;20211;-37
2021/01/26 10:56:09;;;;;;;5.77;1.40;;;;;;;22.67;39.47;101100.38;5051064;28;20218;-43
2021/01/26 10:58:35;;;;;;;4.00;1.37;;;;;;;22.72;39.51;101100.72;5051098;28;20205;-46
2021/01/26 11:01:02;;;;;;;7.50;2.00;;;;;;;22.76;39.63;101103.91;5050773;28;20211;-48
2021/01/26 11:03:28;;;;;;;3.77;1.30;;;;;;;22.83;39.70;101104.88;5066866;28;20188;-41
2021/01/26 11:05:54;;;;;;;5.57;1.30;;;;;;;22.87;39.43;101111.66;5069970;28;20711;-42
2021/01/26 11:08:20;;;;;;;6.37;1.43;;;;;;;22.92;39.36;101110.06;5070634;28;20200;-43
2021/01/26 11:14:09;;;;;;;5.47;1.70;;;;;;;23.04;39.39;101096.81;5050682;28;20257;-42
2021/01/26 11:16:35;;;;;;;4.15;1.50;;;;;;;23.08;39.03;101100.00;5062099;28;20729;-43
2021/01/26 11:19:02;;;;;;;3.43;1.60;;;;;;;23.13;39.04;101105.72;5071953;28;20274;-44
2021/01/26 11:21:28;;;;;;;4.40;1.80;;;;;;;23.15;38.80;101109.13;5072173;28;20215;-43
2021/01/26 11:23:55;;;;;;;5.35;1.48;;;;;;;23.18;38.78;101108.72;5072143;28;20248;-45
2021/01/26 11:26:21;;;;;;;4.17;1.63;;;;;;;23.22;38.58;101115.53;5071864;28;20199;-43
2021/01/26 11:28:47;;;;;;;2.37;1.47;;;;;;;23.25;38.57;101104.22;5071012;28;20290;-43
2021/01/26 11:31:14;;;;;;;6.80;2.07;;;;;;;23.28;38.43;101112.03;5071674;28;20182;-44
2021/01/26 11:33:40;;;;;;;5.97;2.00;;;;;;;23.30;38.14;101112.69;5071383;28;20226;-45
2021/01/26 11:36:07;;;;;;;5.20;1.80;;;;;;;23.33;38.15;101108.75;5070052;28;20203;-41
2021/01/26 11:38:33;;;;;;;3.80;1.60;;;;;;;23.34;37.97;101121.34;5068755;28;20192;-43
2021/01/26 11:40:59;;;;;;;4.70;1.27;;;;;;;23.33;38.05;101117.78;5065801;28;20267;-40
2021/01/26 11:43:26;;;;;;;4.60;1.70;;;;;;;23.35;37.97;101121.16;5066816;28;20283;-44
2021/01/26 11:45:53;;;;;;;11.53;1.73;;;;;;;23.35;38.04;101121.16;5071167;28;20215;-42
2021/01/26 11:48:20;;;;;;;7.40;1.63;;;;;;;23.36;38.08;101119.28;5071179;28;20187;-46
2021/01/26 11:50:46;;;;;;;6.70;1.67;;;;;;;23.36;37.97;101119.28;5070837;28;20271;-45
2021/01/26 11:53:14;;;;;;;5.37;1.50;;;;;;;23.36;37.97;101127.47;5064443;28;20531;-44
2021/01/26 11:55:41;;;;;;;3.43;1.70;;;;;;;23.34;37.99;101127.66;5069512;28;20239;-45
2021/01/26 11:58:07;;;;;;;5.53;1.40;;;;;;;23.34;37.92;101122.22;5062626;28;20188;-46